Time;durP1;ratioP1;P1;durP2;ratioP2;P2;SDS_P1;SDS_P2;PMS_P1;PMS_P2;Temp;Humidity;BMP_temperature;BMP_pressure;BME280_temperature;BME280_humidity;BME280_pressure;Samples;Min_cycle;Max_cycle;Signal;HPM_P1;HPM_P2
2023/05/19 00:01:51;;;;;;;8.57;4.97;;;;;;;9.26;55.96;101474.56;10027084;29;20046;-74
2023/05/19 00:06:57;;;;;;;11.82;5.68;;;;;;;9.25;56.16;101471.03;10030443;29;20046;-74
2023/05/19 00:12:00;;;;;;;8.40;4.25;;;;;;;9.10;56.76;101476.41;10028656;29;20594;-73
2023/05/19 00:17:04;;;;;;;12.38;4.10;;;;;;;8.88;57.13;101460.69;10037128;29;20050;-73
2023/05/19 00:22:08;;;;;;;14.77;4.60;;;;;;;8.98;57.33;101468.13;10034253;29;20053;-75
2023/05/19 00:27:11;;;;;;;9.05;5.10;;;;;;;8.84;57.70;101457.31;10040657;29;20053;-74
2023/05/19 00:32:14;;;;;;;11.90;5.25;;;;;;;8.66;58.07;101461.88;10039226;29;20046;-74
2023/05/19 00:37:19;;;;;;;13.07;5.50;;;;;;;8.74;57.81;101456.09;10037385;29;20564;-74
2023/05/19 00:42:22;;;;;;;9.65;5.15;;;;;;;8.83;57.93;101444.84;10035340;29;20053;-74
2023/05/19 00:47:25;;;;;;;9.48;5.57;;;;;;;8.72;57.86;101444.59;10039029;29;20082;-74
2023/05/19 00:52:29;;;;;;;8.98;5.70;;;;;;;8.82;57.87;101443.16;10037835;29;20478;-74
2023/05/19 00:57:32;;;;;;;9.25;5.20;;;;;;;8.83;57.48;101450.22;10032854;29;20060;-75
2023/05/19 01:02:36;;;;;;;12.32;5.32;;;;;;;8.97;57.50;101454.81;10034872;29;20498;-74
2023/05/19 01:07:42;;;;;;;8.85;4.68;;;;;;;9.00;57.23;101452.81;10032919;29;20075;-74
2023/05/19 01:12:45;;;;;;;10.27;4.88;;;;;;;8.95;57.20;101457.56;10040718;29;20749;-74
2023/05/19 01:17:54;;;;;;;7.68;4.53;;;;;;;8.94;56.98;101460.31;10039604;29;20080;-74
2023/05/19 01:23:17;;;;;;;11.00;4.75;;;;;;;8.84;57.58;101449.28;10040263;29;20520;-77
2023/05/19 01:28:48;;;;;;;8.70;4.82;;;;;;;8.75;57.94;101452.47;10041606;29;20069;-74
2023/05/19 01:33:54;;;;;;;8.55;4.20;;;;;;;8.59;57.86;101455.16;10033200;29;20057;-73
2023/05/19 01:39:02;;;;;;;12.10;4.07;;;;;;;8.50;58.24;101453.88;10041536;29;20077;-72
2023/05/19 01:44:05;;;;;;;8.63;4.10;;;;;;;8.45;58.31;101455.91;10033532;29;20141;-72
2023/05/19 01:49:09;;;;;;;8.40;4.65;;;;;;;8.52;58.13;101462.66;10033796;29;20060;-73
2023/05/19 01:54:12;;;;;;;7.75;4.45;;;;;;;8.55;57.90;101459.81;10033430;29;20041;-72
2023/05/19 01:59:28;;;;;;;10.55;4.80;;;;;;;8.46;57.95;101449.63;10036037;29;20050;-75
2023/05/19 02:04:43;;;;;;;8.82;5.00;;;;;;;8.40;58.09;101449.94;10034328;29;20038;-73
2023/05/19 02:09:52;;;;;;;14.63;4.85;;;;;;;8.43;58.30;101449.75;10034637;29;20048;-74
2023/05/19 02:15:02;;;;;;;9.50;5.35;;;;;;;8.19;58.89;101454.63;10034548;29;20046;-74
2023/05/19 02:20:08;;;;;;;11.13;5.13;;;;;;;8.16;59.09;101452.97;10048065;29;20144;-73
2023/05/19 02:25:11;;;;;;;8.85;4.20;;;;;;;8.21;59.08;101443.84;10034127;29;20535;-74
2023/05/19 02:30:14;;;;;;;9.23;5.20;;;;;;;8.05;58.74;101452.69;10039071;29;20399;-74
2023/05/19 02:35:19;;;;;;;8.32;4.53;;;;;;;7.47;60.96;101448.59;10040676;29;20044;-77
2023/05/19 02:40:22;;;;;;;11.52;5.68;;;;;;;6.93;63.71;101446.88;10046042;29;20043;-74
2023/05/19 02:45:27;;;;;;;9.13;5.05;;;;;;;6.79;64.24;101448.38;10045869;29;20530;-74
2023/05/19 02:50:33;;;;;;;12.60;5.10;;;;;;;6.87;64.22;101441.81;10040359;29;20098;-75
2023/05/19 02:55:36;;;;;;;8.57;5.90;;;;;;;7.03;63.91;101446.34;10050924;29;20395;-74
2023/05/19 03:00:39;;;;;;;11.90;4.65;;;;;;;6.91;64.04;101440.72;10042170;29;20053;-74
2023/05/19 03:05:43;;;;;;;10.32;5.72;;;;;;;6.37;65.37;101443.28;10043066;29;20038;-74
2023/05/19 03:10:46;;;;;;;11.07;7.22;;;;;;;5.90;67.38;101444.50;10044475;29;20061;-73
2023/05/19 03:15:49;;;;;;;13.82;6.88;;;;;;;5.36;69.79;101450.44;10040915;29;20046;-73
2023/05/19 03:20:54;;;;;;;11.82;6.68;;;;;;;5.63;69.80;101448.38;10043100;29;20101;-75
2023/05/19 03:25:57;;;;;;;11.52;7.40;;;;;;;6.15;68.96;101448.75;10048283;29;20037;-75
2023/05/19 03:31:00;;;;;;;12.05;7.43;;;;;;;6.41;68.32;101444.84;10049791;29;20699;-74
2023/05/19 03:36:11;;;;;;;11.93;7.07;;;;;;;6.51;67.93;101447.97;10048073;29;20110;-73
2023/05/19 03:41:14;;;;;;;10.05;6.35;;;;;;;6.51;67.28;101450.63;10043345;29;20053;-75
2023/05/19 03:46:17;;;;;;;11.23;7.30;;;;;;;6.78;66.74;101448.47;10057649;29;20576;-74
2023/05/19 03:51:37;;;;;;;12.60;6.60;;;;;;;6.97;65.97;101446.66;10055512;29;20050;-74
2023/05/19 03:57:02;;;;;;;11.70;7.00;;;;;;;7.01;64.85;101442.88;10038287;29;20082;-75
2023/05/19 04:02:05;;;;;;;8.00;6.25;;;;;;;7.14;64.38;101450.31;10039817;29;20050;-75
2023/05/19 04:07:11;;;;;;;9.90;5.35;;;;;;;7.16;63.93;101449.28;10038649;29;20057;-74
2023/05/19 04:12:14;;;;;;;9.27;5.78;;;;;;;7.11;64.12;101455.81;10040750;29;20050;-74
2023/05/19 04:17:17;;;;;;;12.55;6.05;;;;;;;7.14;63.61;101463.66;10034434;29;20041;-74
2023/05/19 04:22:21;;;;;;;10.30;6.55;;;;;;;6.95;64.39;101472.56;10038974;29;20050;-74
2023/05/19 04:27:26;;;;;;;10.65;6.22;;;;;;;7.18;64.22;101466.09;10038617;29;20044;-74
2023/05/19 04:32:29;;;;;;;12.68;6.82;;;;;;;7.18;63.98;101470.56;10033593;29;20046;-74
2023/05/19 04:37:37;;;;;;;11.15;6.65;;;;;;;7.37;64.11;101476.72;10041331;29;20046;-74
2023/05/19 04:42:44;;;;;;;13.02;7.68;;;;;;;7.66;63.37;101475.25;10044906;29;20054;-74
2023/05/19 04:47:48;;;;;;;11.35;7.15;;;;;;;7.68;62.95;101468.03;10044190;29;20052;-74
2023/05/19 04:52:53;;;;;;;10.00;7.07;;;;;;;7.78;62.68;101465.72;10042872;29;20098;-74
2023/05/19 04:57:56;;;;;;;13.02;6.72;;;;;;;7.78;62.48;101472.88;10045223;29;20520;-74
2023/05/19 05:02:59;;;;;;;11.52;6.32;;;;;;;7.88;62.61;101469.66;10040549;29;20402;-74
2023/05/19 05:08:06;;;;;;;16.08;6.55;;;;;;;7.95;62.10;101464.81;10044360;29;20049;-74
2023/05/19 05:13:15;;;;;;;11.38;6.85;;;;;;;7.95;61.89;101456.81;10042597;29;20668;-74
2023/05/19 05:18:19;;;;;;;11.00;6.20;;;;;;;7.95;62.81;101460.38;10043849;29;20128;-73
2023/05/19 05:23:24;;;;;;;13.30;6.80;;;;;;;8.05;63.62;101463.41;10045621;29;20674;-74
2023/05/19 05:28:27;;;;;;;12.32;6.70;;;;;;;8.21;63.72;101458.09;10044202;29;20026;-74
2023/05/19 05:33:30;;;;;;;13.15;6.93;;;;;;;8.12;64.51;101461.28;10043240;29;20603;-74
2023/05/19 05:38:35;;;;;;;11.10;6.47;;;;;;;8.22;64.88;101458.94;10045206;29;20433;-75
2023/05/19 05:43:38;;;;;;;11.40;6.97;;;;;;;8.26;63.75;101456.03;10040224;29;20092;-73
2023/05/19 05:48:44;;;;;;;13.13;7.35;;;;;;;8.46;64.16;101451.44;10039547;29;20110;-74
2023/05/19 05:53:52;;;;;;;14.88;7.72;;;;;;;8.66;63.70;101455.66;10038738;29;20064;-75
2023/05/19 05:58:58;;;;;;;5.15;3.78;;;;;;;9.00;64.49;101449.28;10035244;29;20561;-73
2023/05/19 06:04:01;;;;;;;10.73;5.38;;;;;;;9.51;62.18;101455.19;10032999;29;20046;-73
2023/05/19 06:09:06;;;;;;;8.70;5.00;;;;;;;9.57;59.92;101448.59;10036145;29;20057;-74
2023/05/19 06:14:09;;;;;;;8.85;5.18;;;;;;;9.85;61.29;101447.81;10022814;29;20513;-74
2023/05/19 06:19:42;;;;;;;9.27;4.23;;;;;;;10.48;60.77;101449.28;9998344;29;20068;-74
2023/05/19 06:24:46;;;;;;;12.38;5.00;;;;;;;10.91;57.26;101449.19;10001905;29;20530;-74
2023/05/19 06:29:49;;;;;;;10.63;4.72;;;;;;;10.91;56.95;101446.50;10006003;29;20058;-74
2023/05/19 06:34:53;;;;;;;8.10;3.85;;;;;;;11.28;56.38;101451.19;10001690;29;20115;-73
2023/05/19 06:39:58;;;;;;;9.02;3.70;;;;;;;11.68;55.81;101442.22;10003076;29;20049;-74
2023/05/19 06:45:02;;;;;;;6.93;4.05;;;;;;;12.04;54.61;101446.91;10005119;29;20049;-75
2023/05/19 06:50:05;;;;;;;10.18;5.20;;;;;;;12.05;54.96;101445.91;9997942;29;20046;-74
2023/05/19 06:55:12;;;;;;;8.73;4.15;;;;;;;12.12;53.38;101441.81;10002437;29;20050;-74
2023/05/19 07:00:15;;;;;;;9.05;4.10;;;;;;;11.63;54.73;101444.41;10010830;29;20065;-74
2023/05/19 07:05:23;;;;;;;11.13;4.57;;;;;;;12.12;54.16;101433.75;10009918;29;20065;-73
2023/05/19 07:10:32;;;;;;;7.95;3.75;;;;;;;12.72;53.57;101436.66;10009896;29;20194;-72
2023/05/19 07:15:36;;;;;;;7.53;3.97;;;;;;;13.51;52.44;101431.69;10024048;29;20056;-73
2023/05/19 07:20:40;;;;;;;10.32;4.50;;;;;;;14.01;51.36;101424.16;10005450;29;20709;-74
2023/05/19 07:25:44;;;;;;;11.80;4.10;;;;;;;14.58;49.05;101425.91;10006988;29;20049;-73
2023/05/19 07:30:48;;;;;;;11.05;5.00;;;;;;;15.29;48.48;101414.63;10011123;29;20053;-75
2023/05/19 07:35:52;;;;;;;10.98;4.60;;;;;;;16.63;46.47;101415.53;10010581;29;20054;-74
2023/05/19 07:40:56;;;;;;;8.20;3.90;;;;;;;17.77;44.84;101405.84;10009407;29;20061;-74
2023/05/19 07:45:59;;;;;;;6.65;3.72;;;;;;;18.32;42.36;101405.09;10015861;29;20049;-72
2023/05/19 07:51:02;;;;;;;5.93;3.97;;;;;;;17.52;42.97;101398.31;10045079;29;20042;-73
2023/05/19 07:56:07;;;;;;;7.60;3.63;;;;;;;18.57;43.17;101400.84;10050858;29;20527;-74
2023/05/19 08:01:10;;;;;;;8.25;3.38;;;;;;;18.81;40.41;101386.66;10046055;29;20065;-73
2023/05/19 08:06:13;;;;;;;6.88;2.90;;;;;;;18.38;40.50;101395.50;10050122;29;20120;-72
2023/05/19 08:11:17;;;;;;;8.23;3.33;;;;;;;18.48;40.58;101393.56;10049520;29;20524;-73
2023/05/19 08:16:20;;;;;;;14.52;3.63;;;;;;;18.66;41.67;101385.44;10046096;29;20057;-73
2023/05/19 08:21:23;;;;;;;7.78;2.92;;;;;;;18.70;39.06;101379.53;10051522;29;20045;-73
2023/05/19 08:26:27;;;;;;;9.00;3.00;;;;;;;19.01;39.83;101373.78;10047896;29;20517;-73
2023/05/19 08:31:30;;;;;;;9.90;2.20;;;;;;;18.73;38.30;101373.81;10047544;29;20790;-73
2023/05/19 08:36:34;;;;;;;6.78;2.20;;;;;;;18.59;38.01;101366.16;10046744;29;20048;-74
2023/05/19 08:41:38;;;;;;;8.25;1.88;;;;;;;19.09;38.75;101356.63;10043629;29;20054;-74
2023/05/19 08:46:41;;;;;;;5.90;1.63;;;;;;;19.71;37.13;101352.03;10043408;29;20041;-74
2023/05/19 08:51:54;;;;;;;3.95;1.45;;;;;;;19.56;34.58;101348.19;10046273;29;20050;-74
2023/05/19 08:56:58;;;;;;;5.55;1.88;;;;;;;19.44;36.78;101345.69;10060387;29;20065;-74
2023/05/19 09:02:01;;;;;;;4.78;1.48;;;;;;;18.94;38.05;101340.00;10043247;29;20098;-75
2023/05/19 09:07:04;;;;;;;3.47;1.77;;;;;;;18.53;37.76;101343.13;10049076;29;20038;-72
2023/05/19 09:12:08;;;;;;;4.82;2.00;;;;;;;18.39;38.09;101342.81;10048707;29;20406;-74
2023/05/19 09:17:11;;;;;;;5.25;1.60;;;;;;;18.50;37.89;101328.97;10052378;29;20034;-73
2023/05/19 09:22:17;;;;;;;5.15;1.80;;;;;;;18.42;37.16;101329.75;10049791;29;20046;-72
2023/05/19 09:27:23;;;;;;;7.10;2.03;;;;;;;19.67;37.56;101331.56;10045196;29;20050;-74
2023/05/19 09:32:27;;;;;;;6.55;2.40;;;;;;;20.52;36.52;101327.00;10044002;29;20046;-74
2023/05/19 09:37:30;;;;;;;6.22;2.20;;;;;;;21.40;34.86;101311.88;10042173;29;20046;-74
2023/05/19 09:42:37;;;;;;;5.70;2.13;;;;;;;22.09;33.96;101306.75;10043593;29;20540;-74
2023/05/19 09:47:41;;;;;;;4.38;1.60;;;;;;;21.38;34.36;101295.66;10041739;29;20056;-74
2023/05/19 09:52:44;;;;;;;4.72;1.98;;;;;;;20.25;34.57;101291.78;10041843;29;20061;-75
2023/05/19 10:04:36;;;;;;;5.53;2.03;;;;;;;21.33;35.33;101299.94;10036605;29;20034;-73
2023/05/19 10:09:41;;;;;;;6.03;2.22;;;;;;;21.16;34.39;101301.81;10034610;29;20408;-74
2023/05/19 10:14:43;;;;;;;6.03;2.08;;;;;;;19.71;35.19;101293.94;10036012;29;20049;-74
2023/05/19 10:19:50;;;;;;;6.57;2.72;;;;;;;21.04;34.91;101284.09;10037987;29;20050;-73
2023/05/19 10:24:54;;;;;;;5.10;1.90;;;;;;;21.82;32.80;101280.69;10044647;29;20076;-74
2023/05/19 10:30:01;;;;;;;4.55;2.22;;;;;;;22.83;32.46;101267.97;10024658;29;20042;-75
2023/05/19 10:35:16;;;;;;;5.95;2.55;;;;;;;22.40;31.77;101270.31;10008289;29;20426;-74
2023/05/19 10:40:25;;;;;;;3.85;2.17;;;;;;;21.44;33.23;101270.34;9985125;29;20280;-74
2023/05/19 10:45:34;;;;;;;2.85;1.80;;;;;;;21.52;31.91;101264.00;9986031;29;20058;-74
2023/05/19 10:50:39;;;;;;;4.30;2.00;;;;;;;22.90;32.17;101260.72;9987689;29;20061;-74
2023/05/19 10:55:47;;;;;;;6.60;2.00;;;;;;;21.74;31.93;101262.41;9986784;29;20544;-74
2023/05/19 11:01:00;;;;;;;3.17;1.42;;;;;;;21.01;29.83;101267.00;9991276;29;20045;-74
2023/05/19 11:06:25;;;;;;;5.40;1.60;;;;;;;21.76;30.61;101267.75;9990094;29;20056;-74
2023/05/19 11:11:44;;;;;;;2.10;1.40;;;;;;;21.75;30.07;101249.59;9994929;29;20053;-74
2023/05/19 11:16:48;;;;;;;3.42;1.85;;;;;;;21.95;30.17;101252.78;9990293;29;20176;-74
2023/05/19 11:21:54;;;;;;;5.43;1.80;;;;;;;21.46;31.52;101251.06;9993608;29;20151;-74
2023/05/19 11:26:57;;;;;;;3.13;1.35;;;;;;;21.26;30.23;101242.41;9995201;29;20053;-74
2023/05/19 11:32:00;;;;;;;6.22;1.42;;;;;;;22.82;27.27;101238.88;9994256;29;21068;-73
2023/05/19 11:37:06;;;;;;;3.20;1.30;;;;;;;23.61;27.01;101250.25;9993355;29;20257;-74
2023/05/19 11:42:10;;;;;;;3.78;1.70;;;;;;;22.75;28.31;101242.34;10000354;29;20078;-75
2023/05/19 11:47:14;;;;;;;4.18;1.70;;;;;;;24.18;28.58;101235.81;10000726;29;20050;-75
2023/05/19 11:52:22;;;;;;;1.77;1.40;;;;;;;23.25;28.18;101242.75;9998594;29;20622;-75
2023/05/19 11:57:25;;;;;;;4.30;1.63;;;;;;;22.91;28.63;101243.25;10004614;29;20104;-75
2023/05/19 12:02:29;;;;;;;4.03;1.70;;;;;;;23.89;27.89;101234.00;10008402;29;20132;-75
2023/05/19 12:07:33;;;;;;;4.60;1.60;;;;;;;23.96;26.83;101237.66;10004558;29;20054;-75
2023/05/19 12:12:37;;;;;;;3.85;1.58;;;;;;;24.45;26.69;101234.22;10003361;29;20053;-74
2023/05/19 12:17:40;;;;;;;4.85;2.08;;;;;;;25.31;26.19;101228.63;10001661;29;20064;-73
2023/05/19 12:22:45;;;;;;;3.30;1.73;;;;;;;22.98;28.18;101238.72;10003145;29;20069;-73
2023/05/19 12:27:48;;;;;;;3.85;2.10;;;;;;;22.43;28.40;101235.22;10002074;29;20178;-75
2023/05/19 12:32:53;;;;;;;2.60;1.65;;;;;;;23.96;28.22;101214.88;10002528;29;20237;-74
2023/05/19 12:38:02;;;;;;;4.20;1.80;;;;;;;25.03;26.60;101214.06;9999982;29;21002;-74
2023/05/19 12:43:08;;;;;;;5.00;2.05;;;;;;;23.50;28.48;101215.94;10005461;29;21488;-75
2023/05/19 12:48:14;;;;;;;5.55;2.03;;;;;;;23.85;28.28;101207.97;9997564;29;20125;-74
2023/05/19 12:53:19;;;;;;;5.07;2.10;;;;;;;25.05;28.06;101198.22;9998367;29;20063;-75
2023/05/19 12:58:22;;;;;;;7.65;3.30;;;;;;;23.58;27.84;101199.38;9998151;29;20069;-74
2023/05/19 13:03:24;;;;;;;3.88;1.98;;;;;;;23.27;27.47;101206.97;10000794;29;20153;-74
2023/05/19 13:08:29;;;;;;;4.85;1.88;;;;;;;23.85;28.65;101189.63;9999680;29;20060;-74
2023/05/19 13:13:32;;;;;;;4.40;1.73;;;;;;;24.11;27.56;101193.75;10001541;29;20822;-74
2023/05/19 13:18:37;;;;;;;3.60;1.58;;;;;;;24.63;27.62;101188.97;10001405;29;20438;-75
2023/05/19 13:23:41;;;;;;;4.90;2.15;;;;;;;24.76;26.83;101183.59;10004009;29;20087;-75
2023/05/19 13:28:44;;;;;;;3.17;1.83;;;;;;;25.16;26.70;101181.19;10010795;29;20145;-74
2023/05/19 13:33:46;;;;;;;2.72;1.80;;;;;;;23.41;28.41;101192.41;10015377;29;20206;-75
2023/05/19 13:38:51;;;;;;;3.35;2.10;;;;;;;22.62;29.01;101183.75;10014328;29;20064;-74
2023/05/19 13:43:54;;;;;;;3.33;2.13;;;;;;;23.29;29.49;101178.31;10015687;29;20061;-73
2023/05/19 13:48:56;;;;;;;4.25;1.67;;;;;;;22.60;28.77;101185.81;10007412;29;20053;-74
2023/05/19 13:54:00;;;;;;;3.05;1.80;;;;;;;21.91;29.11;101183.03;10007106;29;20109;-75
2023/05/19 13:59:03;;;;;;;3.50;1.50;;;;;;;23.02;28.07;101178.94;10003685;29;20467;-73
2023/05/19 14:04:07;;;;;;;2.65;1.40;;;;;;;24.62;25.98;101157.91;10001806;29;20494;-74
2023/05/19 14:09:11;;;;;;;3.92;1.58;;;;;;;23.57;27.42;101166.69;10004049;29;20135;-75
2023/05/19 14:14:14;;;;;;;3.03;1.60;;;;;;;22.71;29.20;101166.25;10003810;29;20041;-74
2023/05/19 14:19:18;;;;;;;2.15;1.30;;;;;;;23.60;28.24;101156.16;10002262;29;20058;-74
2023/05/19 14:24:22;;;;;;;2.88;1.63;;;;;;;25.12;26.49;101155.13;10004364;29;21357;-74
2023/05/19 14:29:25;;;;;;;1.88;1.50;;;;;;;23.06;29.03;101163.81;10000020;29;20054;-74
2023/05/19 14:34:28;;;;;;;2.63;1.20;;;;;;;22.20;29.26;101165.94;10007497;29;20195;-74
2023/05/19 14:39:32;;;;;;;2.53;1.55;;;;;;;23.04;28.72;101163.16;10003245;29;20060;-74
2023/05/19 14:44:36;;;;;;;3.45;1.55;;;;;;;22.30;28.76;101164.66;10002780;29;20053;-74
2023/05/19 14:49:39;;;;;;;6.07;1.65;;;;;;;21.33;29.80;101166.88;10000628;29;20057;-73
2023/05/19 14:54:43;;;;;;;3.88;1.50;;;;;;;21.55;30.38;101169.88;10000363;29;20528;-75
2023/05/19 14:59:46;;;;;;;3.80;1.50;;;;;;;24.00;28.42;101148.44;9998769;29;20061;-75
2023/05/19 15:04:49;;;;;;;1.50;1.33;;;;;;;24.92;26.99;101158.56;9992337;29;20065;-75
2023/05/19 15:09:53;;;;;;;4.55;1.50;;;;;;;22.85;28.25;101167.31;9998324;29;20058;-75
2023/05/19 15:14:59;;;;;;;2.63;1.45;;;;;;;21.61;29.39;101161.81;10002339;29;20524;-76
2023/05/19 15:20:02;;;;;;;3.97;1.63;;;;;;;22.63;29.27;101169.06;10013888;29;20041;-75
2023/05/19 15:25:08;;;;;;;4.22;1.50;;;;;;;24.03;27.51;101147.22;10008640;29;20513;-75
2023/05/19 15:30:11;;;;;;;4.43;1.60;;;;;;;22.97;27.55;101144.72;10012184;29;20057;-75
2023/05/19 15:35:14;;;;;;;3.03;1.23;;;;;;;23.81;27.51;101135.38;10015507;29;20050;-75
2023/05/19 15:40:19;;;;;;;2.05;1.40;;;;;;;24.22;26.66;101132.00;10019849;29;20089;-75
2023/05/19 15:45:22;;;;;;;4.22;1.30;;;;;;;25.04;26.51;101128.69;10019746;29;20153;-74
2023/05/19 15:50:25;;;;;;;3.63;1.25;;;;;;;23.12;27.59;101139.31;10016415;29;20132;-75
2023/05/19 15:55:30;;;;;;;1.80;1.33;;;;;;;21.53;29.74;101145.47;10011169;29;20050;-75
2023/05/19 16:00:32;;;;;;;4.60;1.83;;;;;;;20.87;31.09;101147.53;10010039;29;20376;-75
2023/05/19 16:05:35;;;;;;;3.00;1.40;;;;;;;20.35;31.69;101128.81;10017404;29;20095;-75
2023/05/19 16:10:40;;;;;;;1.52;1.40;;;;;;;20.27;31.94;101123.34;10011522;29;20140;-75
2023/05/19 16:22:31;;;;;;;4.07;1.33;;;;;;;23.14;28.98;101109.78;10004198;29;20742;-74
2023/05/19 16:27:35;;;;;;;3.22;1.45;;;;;;;21.26;31.19;101113.13;10005340;29;20540;-75
2023/05/19 16:32:38;;;;;;;2.63;1.60;;;;;;;20.16;32.16;101120.91;10000599;29;20140;-74
2023/05/19 16:37:41;;;;;;;2.08;1.08;;;;;;;19.94;32.83;101122.44;10000353;29;20549;-74
2023/05/19 16:42:45;;;;;;;2.55;1.40;;;;;;;20.33;32.15;101115.34;9996510;29;20065;-75
2023/05/19 16:47:48;;;;;;;1.45;1.25;;;;;;;23.75;28.33;101109.53;9995750;29;20058;-75
2023/05/19 16:52:51;;;;;;;5.07;1.63;;;;;;;21.07;31.11;101120.72;10004857;29;20056;-76
2023/05/19 16:57:56;;;;;;;1.50;1.38;;;;;;;20.41;32.71;101109.03;9998431;29;20053;-75
2023/05/19 17:02:59;;;;;;;4.70;1.58;;;;;;;20.30;32.83;101123.84;9991472;29;20057;-75
2023/05/19 17:08:03;;;;;;;2.00;1.13;;;;;;;22.56;29.15;101108.69;9997722;29;20073;-76
2023/05/19 17:13:07;;;;;;;2.22;1.35;;;;;;;21.57;31.37;101110.41;9995755;29;20084;-75
2023/05/19 17:18:11;;;;;;;4.28;1.60;;;;;;;26.51;26.22;101105.22;9991749;29;20057;-78
2023/05/19 17:23:14;;;;;;;3.03;1.30;;;;;;;26.44;25.71;101098.84;10011462;29;20478;-78
2023/05/19 17:28:18;;;;;;;2.67;1.20;;;;;;;28.08;24.10;101094.06;10020628;29;20050;-77
2023/05/19 17:33:21;;;;;;;2.88;1.40;;;;;;;29.08;23.41;101097.66;10014597;29;20493;-75
2023/05/19 17:38:24;;;;;;;3.00;1.30;;;;;;;29.38;22.81;101092.19;10009875;29;20425;-76
2023/05/19 17:43:28;;;;;;;4.22;1.30;;;;;;;23.54;27.63;101117.72;10003482;29;20053;-77
2023/05/19 17:48:32;;;;;;;4.57;1.50;;;;;;;20.42;32.28;101120.78;9998837;29;20084;-76
2023/05/19 17:53:35;;;;;;;1.80;1.33;;;;;;;20.85;32.21;101114.06;9993484;29;20053;-75
2023/05/19 17:58:40;;;;;;;3.03;1.35;;;;;;;20.34;33.17;101117.03;9994572;29;20060;-77
2023/05/19 18:03:48;;;;;;;2.20;1.55;;;;;;;19.88;33.75;101113.91;10002599;29;20048;-76
2023/05/19 18:08:55;;;;;;;2.55;1.30;;;;;;;19.26;34.67;101116.09;9999680;29;20124;-76
2023/05/19 18:14:00;;;;;;;2.10;1.08;;;;;;;18.80;35.34;101112.78;10002507;29;20602;-77
2023/05/19 18:19:03;;;;;;;3.90;1.33;;;;;;;18.61;35.96;101118.41;10001976;29;20486;-76
2023/05/19 18:24:07;;;;;;;3.47;1.40;;;;;;;18.31;36.34;101117.81;9998504;29;20102;-75
2023/05/19 18:29:12;;;;;;;1.42;1.17;;;;;;;18.29;36.72;101131.59;10003013;29;20087;-77
2023/05/19 18:34:15;;;;;;;1.98;1.27;;;;;;;18.20;36.63;101137.09;10002114;29;20691;-74
2023/05/19 18:39:18;;;;;;;1.70;1.30;;;;;;;18.21;36.86;101127.94;10001897;29;20592;-76
2023/05/19 18:44:22;;;;;;;3.45;1.45;;;;;;;18.01;36.57;101135.41;10000120;29;21227;-75
2023/05/19 18:49:25;;;;;;;3.40;1.63;;;;;;;17.93;37.47;101134.25;9998838;29;20202;-76
2023/05/19 18:54:28;;;;;;;2.55;1.63;;;;;;;17.86;37.53;101133.19;10000044;29;20057;-75
2023/05/19 18:59:32;;;;;;;5.25;1.80;;;;;;;17.83;37.83;101140.81;10007385;29;21180;-75
2023/05/19 19:04:35;;;;;;;5.38;1.40;;;;;;;17.61;37.81;101145.66;10007950;29;20845;-75
2023/05/19 19:09:38;;;;;;;3.08;1.40;;;;;;;17.61;38.23;101145.66;10006167;29;20071;-76
2023/05/19 19:14:42;;;;;;;2.17;1.55;;;;;;;17.53;38.58;101144.72;10009687;29;20057;-75
2023/05/19 19:19:45;;;;;;;3.15;1.85;;;;;;;17.47;38.64;101157.88;10003302;29;20076;-76
2023/05/19 19:24:49;;;;;;;4.35;1.75;;;;;;;17.39;38.51;101163.22;10008473;29;20058;-74
2023/05/19 19:29:53;;;;;;;2.50;1.55;;;;;;;17.30;38.78;101166.81;10007915;29;20053;-76
2023/05/19 19:34:56;;;;;;;1.98;1.50;;;;;;;17.14;39.55;101167.47;10010407;29;20057;-76
2023/05/19 19:39:58;;;;;;;2.13;1.42;;;;;;;17.05;39.73;101173.72;10006948;29;20045;-77
2023/05/19 19:45:03;;;;;;;2.65;1.55;;;;;;;16.99;40.07;101174.31;10034826;29;20054;-76
2023/05/19 19:50:07;;;;;;;3.67;1.30;;;;;;;16.94;39.93;101176.63;10000643;29;20085;-76
2023/05/19 19:55:10;;;;;;;2.05;1.65;;;;;;;16.92;40.25;101175.91;10004383;29;20057;-76
2023/05/19 20:00:15;;;;;;;2.28;1.50;;;;;;;16.81;40.55;101176.91;10011045;29;20521;-77
2023/05/19 20:05:18;;;;;;;3.45;1.08;;;;;;;16.66;40.65;101175.69;10016023;29;20061;-76
2023/05/19 20:10:21;;;;;;;2.65;1.25;;;;;;;16.55;41.03;101180.25;10013486;29;20057;-77
2023/05/19 20:15:25;;;;;;;3.00;1.48;;;;;;;16.55;41.17;101182.13;10016196;29;20128;-76
2023/05/19 20:20:28;;;;;;;2.15;1.20;;;;;;;16.48;41.46;101176.44;10019267;29;20161;-77
2023/05/19 20:25:31;;;;;;;3.00;1.80;;;;;;;16.45;41.66;101194.81;10017368;29;20050;-76
2023/05/19 20:30:36;;;;;;;5.47;1.50;;;;;;;16.37;42.02;101198.22;10018880;29;20060;-76
2023/05/19 20:35:39;;;;;;;3.80;1.55;;;;;;;16.25;42.03;101197.50;10041778;29;20064;-77
2023/05/19 20:40:42;;;;;;;7.40;1.63;;;;;;;16.15;42.35;101194.78;10015432;29;20133;-76
2023/05/19 20:45:46;;;;;;;4.30;1.60;;;;;;;16.07;42.28;101196.47;10016125;29;20057;-76
2023/05/19 20:50:50;;;;;;;3.92;1.30;;;;;;;15.98;42.79;101190.03;10016434;29;20186;-77
2023/05/19 20:55:53;;;;;;;3.17;1.40;;;;;;;15.89;43.00;101178.19;10018482;29;20503;-77
2023/05/19 21:00:57;;;;;;;4.05;1.35;;;;;;;15.78;42.75;101188.31;10016750;29;20076;-77
2023/05/19 21:06:00;;;;;;;3.00;1.70;;;;;;;15.66;43.15;101188.41;10016258;29;20548;-76
2023/05/19 21:11:03;;;;;;;3.75;1.50;;;;;;;15.57;43.40;101207.34;10016360;29;20061;-77
2023/05/19 21:16:07;;;;;;;2.63;1.35;;;;;;;15.45;43.40;101188.47;10012888;29;20057;-78
2023/05/19 21:21:10;;;;;;;5.38;1.80;;;;;;;15.36;43.54;101208.25;10021642;29;20060;-78
2023/05/19 21:26:13;;;;;;;2.67;1.63;;;;;;;15.29;43.86;101204.34;10038204;29;20687;-78
2023/05/19 21:31:18;;;;;;;3.15;1.52;;;;;;;15.29;43.84;101208.91;10017884;29;20086;-78
2023/05/19 21:36:21;;;;;;;3.80;1.63;;;;;;;15.26;43.66;101204.63;10012253;29;20157;-77
2023/05/19 21:41:24;;;;;;;3.05;1.38;;;;;;;15.24;43.84;101210.16;10031735;29;20042;-77
2023/05/19 21:46:28;;;;;;;2.72;1.52;;;;;;;15.22;44.05;101214.84;10052704;29;20045;-75
2023/05/19 21:51:33;;;;;;;4.20;1.70;;;;;;;15.13;44.05;101212.09;10054007;29;20109;-77
2023/05/19 21:56:36;;;;;;;2.00;1.48;;;;;;;15.04;44.36;101209.19;10056137;29;20055;-77
2023/05/19 22:01:41;;;;;;;2.35;1.60;;;;;;;14.99;44.42;101211.44;10059127;29;20049;-76
2023/05/19 22:06:44;;;;;;;2.20;1.70;;;;;;;14.91;44.60;101215.81;10047480;29;20049;-75
2023/05/19 22:11:47;;;;;;;6.28;1.60;;;;;;;14.85;44.70;101205.53;10047857;29;20128;-77
2023/05/19 22:16:51;;;;;;;2.08;1.50;;;;;;;14.74;45.10;101207.28;10045911;29;20058;-77
2023/05/19 22:21:54;;;;;;;6.53;1.63;;;;;;;14.71;46.88;101204.00;10041416;29;20045;-76
2023/05/19 22:27:06;;;;;;;2.05;1.60;;;;;;;14.59;47.15;101214.03;10043927;29;20116;-77
2023/05/19 22:32:10;;;;;;;3.20;1.70;;;;;;;14.45;47.72;101209.75;10044789;29;20066;-76
2023/05/19 22:37:13;;;;;;;5.07;1.50;;;;;;;14.42;47.35;101214.56;10043626;29;20049;-77
2023/05/19 22:42:17;;;;;;;3.55;1.75;;;;;;;14.40;47.10;101222.84;10043570;29;20069;-76
2023/05/19 22:47:21;;;;;;;2.42;1.75;;;;;;;14.30;48.28;101214.59;10041419;29;20045;-77
2023/05/19 22:52:24;;;;;;;3.63;1.50;;;;;;;14.31;47.95;101218.16;10039603;29;20038;-76
2023/05/19 22:57:27;;;;;;;2.63;1.48;;;;;;;14.27;47.18;101217.56;10043593;29;20089;-77
2023/05/19 23:02:31;;;;;;;2.22;1.70;;;;;;;14.23;48.18;101217.94;10046422;29;20562;-77
2023/05/19 23:07:34;;;;;;;3.17;1.50;;;;;;;14.12;48.06;101218.81;10042543;29;20494;-75
2023/05/19 23:12:38;;;;;;;6.45;1.58;;;;;;;14.00;47.32;101219.84;10040601;29;20053;-77
2023/05/19 23:17:42;;;;;;;2.58;1.63;;;;;;;13.98;47.35;101221.81;10039247;29;20502;-77
2023/05/19 23:22:45;;;;;;;4.40;1.40;;;;;;;13.92;47.10;101226.72;10047443;29;20433;-76
2023/05/19 23:27:48;;;;;;;6.10;1.60;;;;;;;13.98;46.98;101214.56;10037274;29;20051;-76
2023/05/19 23:32:52;;;;;;;3.08;1.52;;;;;;;13.96;47.18;101212.97;10037747;29;20110;-75
2023/05/19 23:37:55;;;;;;;4.07;1.83;;;;;;;13.95;47.05;101225.63;10039530;29;20271;-75